sensor_id;sensor_type;location;lat;lon;timestamp;P1;durP1;ratioP1;P2;durP2;ratioP2
58214;SDS011;44011;52.218;1.480;2022-12-18T00:00:56;41.38;;;17.08;;
58214;SDS011;44011;52.218;1.480;2022-12-18T00:03:21;38.78;;;15.57;;
58214;SDS011;44011;52.218;1.480;2022-12-18T00:05:47;38.45;;;16.00;;
58214;SDS011;44011;52.218;1.480;2022-12-18T00:08:13;40.53;;;18.38;;
58214;SDS011;44011;52.218;1.480;2022-12-18T00:10:38;45.22;;;17.45;;
58214;SDS011;44011;52.218;1.480;2022-12-18T00:13:03;44.80;;;18.02;;
58214;SDS011;44011;52.218;1.480;2022-12-18T00:15:29;41.60;;;17.35;;
58214;SDS011;44011;52.218;1.480;2022-12-18T00:17:54;48.97;;;18.80;;
58214;SDS011;44011;52.218;1.480;2022-12-18T00:20:21;39.72;;;16.95;;
58214;SDS011;44011;52.218;1.480;2022-12-18T00:22:53;43.22;;;19.08;;
58214;SDS011;44011;52.218;1.480;2022-12-18T00:25:19;43.08;;;18.80;;
58214;SDS011;44011;52.218;1.480;2022-12-18T00:27:44;49.78;;;19.02;;
58214;SDS011;44011;52.218;1.480;2022-12-18T00:30:10;49.17;;;19.27;;
58214;SDS011;44011;52.218;1.480;2022-12-18T00:32:35;38.03;;;16.60;;
58214;SDS011;44011;52.218;1.480;2022-12-18T00:35:01;42.72;;;19.45;;
58214;SDS011;44011;52.218;1.480;2022-12-18T00:37:26;42.22;;;18.90;;
58214;SDS011;44011;52.218;1.480;2022-12-18T00:39:52;41.92;;;17.33;;
58214;SDS011;44011;52.218;1.480;2022-12-18T00:42:17;47.97;;;20.35;;
58214;SDS011;44011;52.218;1.480;2022-12-18T00:45:01;41.08;;;17.73;;
58214;SDS011;44011;52.218;1.480;2022-12-18T00:47:27;43.05;;;17.02;;
58214;SDS011;44011;52.218;1.480;2022-12-18T00:49:52;45.95;;;18.90;;
58214;SDS011;44011;52.218;1.480;2022-12-18T00:52:17;38.03;;;16.63;;
58214;SDS011;44011;52.218;1.480;2022-12-18T00:54:43;41.10;;;17.52;;
58214;SDS011;44011;52.218;1.480;2022-12-18T00:57:08;41.30;;;17.10;;
58214;SDS011;44011;52.218;1.480;2022-12-18T00:59:33;49.15;;;18.92;;
58214;SDS011;44011;52.218;1.480;2022-12-18T01:01:59;43.08;;;18.52;;
58214;SDS011;44011;52.218;1.480;2022-12-18T01:04:24;40.92;;;18.17;;
58214;SDS011;44011;52.218;1.480;2022-12-18T01:06:50;37.03;;;18.05;;
58214;SDS011;44011;52.218;1.480;2022-12-18T01:09:15;45.03;;;17.73;;
58214;SDS011;44011;52.218;1.480;2022-12-18T01:11:40;43.50;;;18.38;;
58214;SDS011;44011;52.218;1.480;2022-12-18T01:14:06;40.65;;;16.58;;
58214;SDS011;44011;52.218;1.480;2022-12-18T01:16:31;39.97;;;17.77;;
58214;SDS011;44011;52.218;1.480;2022-12-18T01:18:56;41.20;;;17.48;;
58214;SDS011;44011;52.218;1.480;2022-12-18T01:21:22;40.00;;;17.45;;
58214;SDS011;44011;52.218;1.480;2022-12-18T01:23:50;38.35;;;17.23;;
58214;SDS011;44011;52.218;1.480;2022-12-18T01:26:16;38.47;;;16.30;;
58214;SDS011;44011;52.218;1.480;2022-12-18T01:28:41;39.50;;;16.52;;
58214;SDS011;44011;52.218;1.480;2022-12-18T01:31:14;36.05;;;16.02;;
58214;SDS011;44011;52.218;1.480;2022-12-18T01:33:40;35.50;;;15.77;;
58214;SDS011;44011;52.218;1.480;2022-12-18T01:36:05;27.25;;;14.98;;
58214;SDS011;44011;52.218;1.480;2022-12-18T01:38:31;29.80;;;14.55;;
58214;SDS011;44011;52.218;1.480;2022-12-18T01:40:57;36.75;;;16.48;;
58214;SDS011;44011;52.218;1.480;2022-12-18T01:43:39;40.58;;;17.08;;
58214;SDS011;44011;52.218;1.480;2022-12-18T01:46:05;38.75;;;16.00;;
58214;SDS011;44011;52.218;1.480;2022-12-18T01:48:30;39.70;;;17.35;;
58214;SDS011;44011;52.218;1.480;2022-12-18T01:50:55;35.58;;;16.50;;
58214;SDS011;44011;52.218;1.480;2022-12-18T01:53:21;39.67;;;16.98;;
58214;SDS011;44011;52.218;1.480;2022-12-18T01:55:51;34.67;;;16.17;;
58214;SDS011;44011;52.218;1.480;2022-12-18T01:58:17;35.50;;;16.17;;
58214;SDS011;44011;52.218;1.480;2022-12-18T02:00:43;37.90;;;15.95;;
58214;SDS011;44011;52.218;1.480;2022-12-18T02:03:08;35.63;;;17.25;;
58214;SDS011;44011;52.218;1.480;2022-12-18T02:05:36;38.90;;;17.05;;
58214;SDS011;44011;52.218;1.480;2022-12-18T02:08:10;46.25;;;18.20;;
58214;SDS011;44011;52.218;1.480;2022-12-18T02:13:30;40.40;;;16.38;;
58214;SDS011;44011;52.218;1.480;2022-12-18T02:16:00;43.13;;;17.08;;
58214;SDS011;44011;52.218;1.480;2022-12-18T02:18:28;45.92;;;16.73;;
58214;SDS011;44011;52.218;1.480;2022-12-18T02:20:58;43.13;;;17.40;;
58214;SDS011;44011;52.218;1.480;2022-12-18T02:31:35;34.75;;;15.82;;
58214;SDS011;44011;52.218;1.480;2022-12-18T02:34:02;33.92;;;14.80;;
58214;SDS011;44011;52.218;1.480;2022-12-18T02:36:29;34.42;;;15.40;;
58214;SDS011;44011;52.218;1.480;2022-12-18T02:38:56;32.60;;;17.20;;
58214;SDS011;44011;52.218;1.480;2022-12-18T02:41:21;39.58;;;17.33;;
58214;SDS011;44011;52.218;1.480;2022-12-18T02:43:48;36.28;;;16.02;;
58214;SDS011;44011;52.218;1.480;2022-12-18T02:48:48;42.55;;;16.88;;
58214;SDS011;44011;52.218;1.480;2022-12-18T02:51:17;35.38;;;16.30;;
58214;SDS011;44011;52.218;1.480;2022-12-18T02:53:53;38.50;;;16.92;;
58214;SDS011;44011;52.218;1.480;2022-12-18T02:56:22;32.47;;;15.18;;
58214;SDS011;44011;52.218;1.480;2022-12-18T03:01:21;36.42;;;16.08;;
58214;SDS011;44011;52.218;1.480;2022-12-18T03:03:55;47.38;;;19.83;;
58214;SDS011;44011;52.218;1.480;2022-12-18T03:06:26;40.08;;;17.58;;
58214;SDS011;44011;52.218;1.480;2022-12-18T03:08:54;38.63;;;16.42;;
58214;SDS011;44011;52.218;1.480;2022-12-18T03:11:22;40.60;;;18.77;;
58214;SDS011;44011;52.218;1.480;2022-12-18T03:14:08;47.78;;;19.17;;
58214;SDS011;44011;52.218;1.480;2022-12-18T03:16:35;32.50;;;16.17;;
58214;SDS011;44011;52.218;1.480;2022-12-18T03:19:01;45.70;;;18.42;;
58214;SDS011;44011;52.218;1.480;2022-12-18T03:21:28;37.03;;;16.05;;
58214;SDS011;44011;52.218;1.480;2022-12-18T03:23:54;33.35;;;15.40;;
58214;SDS011;44011;52.218;1.480;2022-12-18T03:26:22;36.15;;;15.15;;
58214;SDS011;44011;52.218;1.480;2022-12-18T03:28:50;33.97;;;15.70;;
58214;SDS011;44011;52.218;1.480;2022-12-18T03:31:16;37.53;;;16.48;;
58214;SDS011;44011;52.218;1.480;2022-12-18T03:33:53;36.28;;;16.50;;
58214;SDS011;44011;52.218;1.480;2022-12-18T03:36:18;32.15;;;14.05;;
58214;SDS011;44011;52.218;1.480;2022-12-18T03:38:44;33.65;;;15.40;;
58214;SDS011;44011;52.218;1.480;2022-12-18T03:43:36;34.63;;;16.92;;
58214;SDS011;44011;52.218;1.480;2022-12-18T03:46:07;36.58;;;15.48;;
58214;SDS011;44011;52.218;1.480;2022-12-18T03:48:37;35.92;;;16.15;;
58214;SDS011;44011;52.218;1.480;2022-12-18T03:56:16;35.78;;;15.27;;
58214;SDS011;44011;52.218;1.480;2022-12-18T03:58:42;35.92;;;14.95;;
58214;SDS011;44011;52.218;1.480;2022-12-18T04:01:08;34.72;;;15.07;;
58214;SDS011;44011;52.218;1.480;2022-12-18T04:03:36;36.95;;;15.65;;
58214;SDS011;44011;52.218;1.480;2022-12-18T04:06:02;39.65;;;16.75;;
58214;SDS011;44011;52.218;1.480;2022-12-18T04:08:28;40.40;;;15.82;;
58214;SDS011;44011;52.218;1.480;2022-12-18T04:10:54;39.08;;;16.27;;
58214;SDS011;44011;52.218;1.480;2022-12-18T04:13:23;35.08;;;15.98;;
58214;SDS011;44011;52.218;1.480;2022-12-18T04:15:49;35.20;;;15.13;;
58214;SDS011;44011;52.218;1.480;2022-12-18T04:18:14;42.28;;;17.00;;
58214;SDS011;44011;52.218;1.480;2022-12-18T04:20:39;36.22;;;16.08;;
58214;SDS011;44011;52.218;1.480;2022-12-18T04:23:05;34.40;;;14.60;;
58214;SDS011;44011;52.218;1.480;2022-12-18T04:25:30;31.13;;;14.25;;
58214;SDS011;44011;52.218;1.480;2022-12-18T04:27:55;34.88;;;14.68;;
58214;SDS011;44011;52.218;1.480;2022-12-18T04:30:21;41.22;;;16.35;;
58214;SDS011;44011;52.218;1.480;2022-12-18T04:32:46;41.53;;;16.48;;
58214;SDS011;44011;52.218;1.480;2022-12-18T04:35:11;39.78;;;16.65;;
58214;SDS011;44011;52.218;1.480;2022-12-18T04:37:37;37.78;;;16.38;;
58214;SDS011;44011;52.218;1.480;2022-12-18T04:40:02;36.85;;;14.90;;
58214;SDS011;44011;52.218;1.480;2022-12-18T04:42:28;32.03;;;15.93;;
58214;SDS011;44011;52.218;1.480;2022-12-18T04:44:53;34.63;;;15.77;;
58214;SDS011;44011;52.218;1.480;2022-12-18T04:47:18;37.55;;;16.45;;
58214;SDS011;44011;52.218;1.480;2022-12-18T04:49:44;33.70;;;14.68;;
58214;SDS011;44011;52.218;1.480;2022-12-18T04:52:09;30.05;;;15.40;;
58214;SDS011;44011;52.218;1.480;2022-12-18T04:54:34;33.53;;;14.05;;
58214;SDS011;44011;52.218;1.480;2022-12-18T04:57:00;28.33;;;13.32;;
58214;SDS011;44011;52.218;1.480;2022-12-18T04:59:25;31.15;;;13.25;;
58214;SDS011;44011;52.218;1.480;2022-12-18T05:01:50;24.30;;;11.30;;
58214;SDS011;44011;52.218;1.480;2022-12-18T05:04:16;23.92;;;11.48;;
58214;SDS011;44011;52.218;1.480;2022-12-18T05:06:41;25.25;;;12.23;;
58214;SDS011;44011;52.218;1.480;2022-12-18T05:09:07;19.95;;;12.05;;
58214;SDS011;44011;52.218;1.480;2022-12-18T05:11:32;25.83;;;12.27;;
58214;SDS011;44011;52.218;1.480;2022-12-18T05:13:57;25.05;;;11.98;;
58214;SDS011;44011;52.218;1.480;2022-12-18T05:16:23;26.63;;;11.90;;
58214;SDS011;44011;52.218;1.480;2022-12-18T05:18:48;26.08;;;11.48;;
58214;SDS011;44011;52.218;1.480;2022-12-18T05:21:13;23.70;;;9.77;;
58214;SDS011;44011;52.218;1.480;2022-12-18T05:23:38;27.38;;;11.90;;
58214;SDS011;44011;52.218;1.480;2022-12-18T05:26:04;24.58;;;11.23;;
58214;SDS011;44011;52.218;1.480;2022-12-18T05:28:31;28.55;;;12.75;;
58214;SDS011;44011;52.218;1.480;2022-12-18T05:30:58;27.52;;;11.60;;
58214;SDS011;44011;52.218;1.480;2022-12-18T05:33:24;26.75;;;12.38;;
58214;SDS011;44011;52.218;1.480;2022-12-18T05:35:53;26.73;;;11.25;;
58214;SDS011;44011;52.218;1.480;2022-12-18T05:38:20;25.33;;;12.38;;
58214;SDS011;44011;52.218;1.480;2022-12-18T05:40:46;24.42;;;11.60;;
58214;SDS011;44011;52.218;1.480;2022-12-18T05:43:12;34.35;;;14.80;;
58214;SDS011;44011;52.218;1.480;2022-12-18T05:45:37;26.38;;;13.13;;
58214;SDS011;44011;52.218;1.480;2022-12-18T05:48:03;29.65;;;12.38;;
58214;SDS011;44011;52.218;1.480;2022-12-18T05:50:28;30.60;;;13.43;;
58214;SDS011;44011;52.218;1.480;2022-12-18T05:52:54;29.13;;;12.32;;
58214;SDS011;44011;52.218;1.480;2022-12-18T05:55:19;26.33;;;12.43;;
58214;SDS011;44011;52.218;1.480;2022-12-18T05:57:44;31.30;;;12.45;;
58214;SDS011;44011;52.218;1.480;2022-12-18T06:00:10;23.73;;;11.65;;
58214;SDS011;44011;52.218;1.480;2022-12-18T06:02:36;23.30;;;10.25;;
58214;SDS011;44011;52.218;1.480;2022-12-18T06:05:01;25.63;;;11.93;;
58214;SDS011;44011;52.218;1.480;2022-12-18T06:07:27;23.40;;;11.57;;
58214;SDS011;44011;52.218;1.480;2022-12-18T06:09:52;22.60;;;10.55;;
58214;SDS011;44011;52.218;1.480;2022-12-18T06:12:17;22.40;;;10.23;;
58214;SDS011;44011;52.218;1.480;2022-12-18T06:14:43;26.77;;;11.55;;
58214;SDS011;44011;52.218;1.480;2022-12-18T06:17:08;20.02;;;9.45;;
58214;SDS011;44011;52.218;1.480;2022-12-18T06:19:34;21.02;;;9.43;;
58214;SDS011;44011;52.218;1.480;2022-12-18T06:21:59;23.30;;;8.60;;
58214;SDS011;44011;52.218;1.480;2022-12-18T06:24:24;17.67;;;8.13;;
58214;SDS011;44011;52.218;1.480;2022-12-18T06:26:50;24.98;;;9.57;;
58214;SDS011;44011;52.218;1.480;2022-12-18T06:29:15;25.52;;;10.00;;
58214;SDS011;44011;52.218;1.480;2022-12-18T06:31:40;17.33;;;8.52;;
58214;SDS011;44011;52.218;1.480;2022-12-18T06:34:06;19.90;;;8.25;;
58214;SDS011;44011;52.218;1.480;2022-12-18T06:36:31;23.48;;;9.77;;
58214;SDS011;44011;52.218;1.480;2022-12-18T06:38:57;19.83;;;9.73;;
58214;SDS011;44011;52.218;1.480;2022-12-18T06:41:23;15.93;;;8.43;;
58214;SDS011;44011;52.218;1.480;2022-12-18T06:43:48;20.95;;;9.18;;
58214;SDS011;44011;52.218;1.480;2022-12-18T06:46:14;23.63;;;9.68;;
58214;SDS011;44011;52.218;1.480;2022-12-18T06:48:39;23.33;;;9.88;;
58214;SDS011;44011;52.218;1.480;2022-12-18T06:51:05;22.35;;;11.10;;
58214;SDS011;44011;52.218;1.480;2022-12-18T06:53:31;26.38;;;10.93;;
58214;SDS011;44011;52.218;1.480;2022-12-18T06:56:03;21.35;;;10.98;;
58214;SDS011;44011;52.218;1.480;2022-12-18T06:58:29;20.25;;;9.95;;
58214;SDS011;44011;52.218;1.480;2022-12-18T07:00:59;28.65;;;11.98;;
58214;SDS011;44011;52.218;1.480;2022-12-18T07:03:24;22.83;;;10.20;;
58214;SDS011;44011;52.218;1.480;2022-12-18T07:05:49;24.73;;;11.43;;
58214;SDS011;44011;52.218;1.480;2022-12-18T07:08:15;21.27;;;10.23;;
58214;SDS011;44011;52.218;1.480;2022-12-18T07:10:41;25.73;;;12.05;;
58214;SDS011;44011;52.218;1.480;2022-12-18T07:13:06;24.02;;;11.65;;
58214;SDS011;44011;52.218;1.480;2022-12-18T07:15:32;27.35;;;11.57;;
58214;SDS011;44011;52.218;1.480;2022-12-18T07:17:58;21.50;;;11.27;;
58214;SDS011;44011;52.218;1.480;2022-12-18T07:20:23;29.80;;;11.60;;
58214;SDS011;44011;52.218;1.480;2022-12-18T07:22:48;26.77;;;13.02;;
58214;SDS011;44011;52.218;1.480;2022-12-18T07:25:14;26.98;;;11.98;;
58214;SDS011;44011;52.218;1.480;2022-12-18T07:27:39;27.88;;;13.70;;
58214;SDS011;44011;52.218;1.480;2022-12-18T07:30:05;38.10;;;16.00;;
58214;SDS011;44011;52.218;1.480;2022-12-18T07:32:30;32.58;;;15.35;;
58214;SDS011;44011;52.218;1.480;2022-12-18T07:34:56;46.58;;;17.63;;
58214;SDS011;44011;52.218;1.480;2022-12-18T07:37:21;37.55;;;16.40;;
58214;SDS011;44011;52.218;1.480;2022-12-18T07:39:46;33.72;;;16.08;;
58214;SDS011;44011;52.218;1.480;2022-12-18T07:42:12;34.05;;;15.55;;
58214;SDS011;44011;52.218;1.480;2022-12-18T07:44:55;30.80;;;15.50;;
58214;SDS011;44011;52.218;1.480;2022-12-18T07:47:21;33.92;;;16.13;;
58214;SDS011;44011;52.218;1.480;2022-12-18T07:49:46;35.33;;;16.67;;
58214;SDS011;44011;52.218;1.480;2022-12-18T07:52:11;42.10;;;19.25;;
58214;SDS011;44011;52.218;1.480;2022-12-18T07:54:37;29.30;;;16.25;;
58214;SDS011;44011;52.218;1.480;2022-12-18T07:57:03;43.67;;;18.02;;
58214;SDS011;44011;52.218;1.480;2022-12-18T07:59:28;34.75;;;16.45;;
58214;SDS011;44011;52.218;1.480;2022-12-18T08:01:53;37.85;;;17.63;;
58214;SDS011;44011;52.218;1.480;2022-12-18T08:04:19;37.05;;;18.13;;
58214;SDS011;44011;52.218;1.480;2022-12-18T08:06:44;41.20;;;17.88;;
58214;SDS011;44011;52.218;1.480;2022-12-18T08:09:10;37.85;;;18.08;;
58214;SDS011;44011;52.218;1.480;2022-12-18T08:11:35;40.13;;;16.90;;
58214;SDS011;44011;52.218;1.480;2022-12-18T08:14:00;42.70;;;18.45;;
58214;SDS011;44011;52.218;1.480;2022-12-18T08:16:26;42.00;;;18.50;;
58214;SDS011;44011;52.218;1.480;2022-12-18T08:18:52;35.22;;;17.05;;
58214;SDS011;44011;52.218;1.480;2022-12-18T08:21:18;38.17;;;18.20;;
58214;SDS011;44011;52.218;1.480;2022-12-18T08:23:46;33.70;;;16.38;;
58214;SDS011;44011;52.218;1.480;2022-12-18T08:26:11;34.95;;;16.70;;
58214;SDS011;44011;52.218;1.480;2022-12-18T08:28:37;32.55;;;14.85;;
58214;SDS011;44011;52.218;1.480;2022-12-18T08:31:02;35.50;;;16.45;;
58214;SDS011;44011;52.218;1.480;2022-12-18T08:33:28;33.83;;;15.90;;
58214;SDS011;44011;52.218;1.480;2022-12-18T08:35:53;35.38;;;16.20;;
58214;SDS011;44011;52.218;1.480;2022-12-18T08:38:18;34.38;;;16.02;;
58214;SDS011;44011;52.218;1.480;2022-12-18T08:40:44;30.52;;;14.65;;
58214;SDS011;44011;52.218;1.480;2022-12-18T08:43:10;31.60;;;16.40;;
58214;SDS011;44011;52.218;1.480;2022-12-18T08:45:53;37.10;;;17.13;;
58214;SDS011;44011;52.218;1.480;2022-12-18T08:48:19;27.50;;;15.85;;
58214;SDS011;44011;52.218;1.480;2022-12-18T08:50:53;40.20;;;17.70;;
58214;SDS011;44011;52.218;1.480;2022-12-18T08:53:18;29.90;;;16.83;;
58214;SDS011;44011;52.218;1.480;2022-12-18T08:55:44;31.15;;;16.90;;
58214;SDS011;44011;52.218;1.480;2022-12-18T08:58:09;31.02;;;15.80;;
58214;SDS011;44011;52.218;1.480;2022-12-18T09:00:34;33.20;;;16.58;;
58214;SDS011;44011;52.218;1.480;2022-12-18T09:03:00;33.72;;;16.73;;
58214;SDS011;44011;52.218;1.480;2022-12-18T09:05:27;36.05;;;17.05;;
58214;SDS011;44011;52.218;1.480;2022-12-18T09:07:52;36.17;;;17.40;;
58214;SDS011;44011;52.218;1.480;2022-12-18T09:10:17;35.35;;;18.48;;
58214;SDS011;44011;52.218;1.480;2022-12-18T09:12:43;39.28;;;19.88;;
58214;SDS011;44011;52.218;1.480;2022-12-18T09:15:08;41.78;;;20.80;;
58214;SDS011;44011;52.218;1.480;2022-12-18T09:17:34;38.05;;;19.27;;
58214;SDS011;44011;52.218;1.480;2022-12-18T09:19:59;38.75;;;19.38;;
58214;SDS011;44011;52.218;1.480;2022-12-18T09:22:25;36.30;;;19.23;;
58214;SDS011;44011;52.218;1.480;2022-12-18T09:24:50;42.88;;;20.42;;
58214;SDS011;44011;52.218;1.480;2022-12-18T09:27:15;38.17;;;19.02;;
58214;SDS011;44011;52.218;1.480;2022-12-18T09:29:41;35.67;;;18.88;;
58214;SDS011;44011;52.218;1.480;2022-12-18T09:32:06;35.67;;;19.25;;
58214;SDS011;44011;52.218;1.480;2022-12-18T09:34:31;46.33;;;20.50;;
58214;SDS011;44011;52.218;1.480;2022-12-18T09:36:57;32.50;;;17.63;;
58214;SDS011;44011;52.218;1.480;2022-12-18T09:39:23;28.75;;;15.73;;
58214;SDS011;44011;52.218;1.480;2022-12-18T09:41:52;32.83;;;18.23;;
58214;SDS011;44011;52.218;1.480;2022-12-18T09:44:32;32.13;;;15.95;;
58214;SDS011;44011;52.218;1.480;2022-12-18T09:47:04;36.00;;;18.67;;
58214;SDS011;44011;52.218;1.480;2022-12-18T09:49:31;33.42;;;17.92;;
58214;SDS011;44011;52.218;1.480;2022-12-18T09:52:04;36.55;;;18.77;;
58214;SDS011;44011;52.218;1.480;2022-12-18T09:54:35;32.10;;;15.95;;
58214;SDS011;44011;52.218;1.480;2022-12-18T09:57:03;36.13;;;16.98;;
58214;SDS011;44011;52.218;1.480;2022-12-18T09:59:37;29.08;;;15.50;;
58214;SDS011;44011;52.218;1.480;2022-12-18T10:02:14;29.65;;;16.58;;
58214;SDS011;44011;52.218;1.480;2022-12-18T10:04:40;25.23;;;14.55;;
58214;SDS011;44011;52.218;1.480;2022-12-18T10:07:18;33.53;;;16.27;;
58214;SDS011;44011;52.218;1.480;2022-12-18T10:17:25;30.23;;;15.10;;
58214;SDS011;44011;52.218;1.480;2022-12-18T10:20:13;25.67;;;13.02;;
58214;SDS011;44011;52.218;1.480;2022-12-18T10:27:42;31.70;;;15.38;;
58214;SDS011;44011;52.218;1.480;2022-12-18T10:30:17;33.40;;;15.27;;
58214;SDS011;44011;52.218;1.480;2022-12-18T10:32:43;38.20;;;17.35;;
58214;SDS011;44011;52.218;1.480;2022-12-18T10:35:15;32.20;;;15.85;;
58214;SDS011;44011;52.218;1.480;2022-12-18T10:37:58;29.70;;;15.82;;
58214;SDS011;44011;52.218;1.480;2022-12-18T10:40:24;28.00;;;13.98;;
58214;SDS011;44011;52.218;1.480;2022-12-18T10:43:05;24.38;;;14.95;;
58214;SDS011;44011;52.218;1.480;2022-12-18T10:45:31;30.13;;;16.08;;
58214;SDS011;44011;52.218;1.480;2022-12-18T10:47:56;31.15;;;14.60;;
58214;SDS011;44011;52.218;1.480;2022-12-18T10:50:28;37.88;;;16.90;;
58214;SDS011;44011;52.218;1.480;2022-12-18T10:52:55;28.17;;;14.10;;
58214;SDS011;44011;52.218;1.480;2022-12-18T10:55:21;30.20;;;15.48;;
58214;SDS011;44011;52.218;1.480;2022-12-18T10:57:46;31.33;;;15.48;;
58214;SDS011;44011;52.218;1.480;2022-12-18T11:02:43;34.67;;;15.77;;
58214;SDS011;44011;52.218;1.480;2022-12-18T11:07:53;30.73;;;13.55;;
58214;SDS011;44011;52.218;1.480;2022-12-18T11:10:25;28.45;;;13.52;;
58214;SDS011;44011;52.218;1.480;2022-12-18T11:12:51;29.65;;;14.63;;
58214;SDS011;44011;52.218;1.480;2022-12-18T11:15:20;28.77;;;16.17;;
58214;SDS011;44011;52.218;1.480;2022-12-18T11:17:47;28.00;;;14.95;;
58214;SDS011;44011;52.218;1.480;2022-12-18T11:20:21;34.80;;;15.60;;
58214;SDS011;44011;52.218;1.480;2022-12-18T11:22:57;29.80;;;13.82;;
58214;SDS011;44011;52.218;1.480;2022-12-18T11:25:23;30.52;;;14.00;;
58214;SDS011;44011;52.218;1.480;2022-12-18T11:27:56;27.63;;;13.65;;
58214;SDS011;44011;52.218;1.480;2022-12-18T11:30:26;33.00;;;15.88;;
58214;SDS011;44011;52.218;1.480;2022-12-18T11:40:40;26.52;;;13.68;;
58214;SDS011;44011;52.218;1.480;2022-12-18T11:45:35;28.58;;;15.23;;
58214;SDS011;44011;52.218;1.480;2022-12-18T11:48:09;31.60;;;15.48;;
58214;SDS011;44011;52.218;1.480;2022-12-18T11:53:03;29.65;;;14.70;;
58214;SDS011;44011;52.218;1.480;2022-12-18T12:00:43;32.05;;;16.95;;
58214;SDS011;44011;52.218;1.480;2022-12-18T12:03:21;26.45;;;14.00;;
58214;SDS011;44011;52.218;1.480;2022-12-18T12:14:01;30.23;;;14.73;;
58214;SDS011;44011;52.218;1.480;2022-12-18T12:16:39;26.40;;;15.38;;
58214;SDS011;44011;52.218;1.480;2022-12-18T12:19:17;26.73;;;14.50;;
58214;SDS011;44011;52.218;1.480;2022-12-18T12:21:53;31.77;;;15.70;;
58214;SDS011;44011;52.218;1.480;2022-12-18T12:27:02;25.65;;;14.30;;
58214;SDS011;44011;52.218;1.480;2022-12-18T12:32:05;28.55;;;15.95;;
58214;SDS011;44011;52.218;1.480;2022-12-18T12:37:38;28.73;;;15.10;;
58214;SDS011;44011;52.218;1.480;2022-12-18T12:40:07;28.90;;;15.68;;
58214;SDS011;44011;52.218;1.480;2022-12-18T12:42:57;34.33;;;16.33;;
58214;SDS011;44011;52.218;1.480;2022-12-18T12:50:50;27.52;;;14.70;;
58214;SDS011;44011;52.218;1.480;2022-12-18T12:53:20;29.05;;;16.63;;
58214;SDS011;44011;52.218;1.480;2022-12-18T12:55:46;31.20;;;15.75;;
58214;SDS011;44011;52.218;1.480;2022-12-18T12:58:55;37.10;;;16.52;;
58214;SDS011;44011;52.218;1.480;2022-12-18T13:06:19;27.30;;;14.38;;
58214;SDS011;44011;52.218;1.480;2022-12-18T13:08:59;31.95;;;14.73;;
58214;SDS011;44011;52.218;1.480;2022-12-18T13:14:12;27.90;;;14.23;;
58214;SDS011;44011;52.218;1.480;2022-12-18T13:16:44;34.53;;;15.60;;
58214;SDS011;44011;52.218;1.480;2022-12-18T13:19:18;33.03;;;16.83;;
58214;SDS011;44011;52.218;1.480;2022-12-18T13:21:45;28.83;;;15.45;;
58214;SDS011;44011;52.218;1.480;2022-12-18T13:24:27;28.60;;;15.00;;
58214;SDS011;44011;52.218;1.480;2022-12-18T13:26:54;29.88;;;16.10;;
58214;SDS011;44011;52.218;1.480;2022-12-18T13:32:10;29.58;;;15.80;;
58214;SDS011;44011;52.218;1.480;2022-12-18T13:34:43;36.75;;;18.05;;
58214;SDS011;44011;52.218;1.480;2022-12-18T13:37:51;30.83;;;15.35;;
58214;SDS011;44011;52.218;1.480;2022-12-18T13:39:58;38.28;;;20.42;;
58214;SDS011;44011;52.218;1.480;2022-12-18T13:48:02;33.13;;;17.15;;
58214;SDS011;44011;52.218;1.480;2022-12-18T13:50:28;34.78;;;18.33;;
58214;SDS011;44011;52.218;1.480;2022-12-18T13:52:54;37.45;;;17.88;;
58214;SDS011;44011;52.218;1.480;2022-12-18T13:55:19;35.78;;;18.63;;
58214;SDS011;44011;52.218;1.480;2022-12-18T13:57:45;37.78;;;19.33;;
58214;SDS011;44011;52.218;1.480;2022-12-18T14:00:27;36.65;;;19.05;;
58214;SDS011;44011;52.218;1.480;2022-12-18T14:02:53;38.72;;;17.23;;
58214;SDS011;44011;52.218;1.480;2022-12-18T14:05:22;34.28;;;17.75;;
58214;SDS011;44011;52.218;1.480;2022-12-18T14:07:48;30.58;;;16.55;;
58214;SDS011;44011;52.218;1.480;2022-12-18T14:10:14;34.72;;;17.15;;
58214;SDS011;44011;52.218;1.480;2022-12-18T14:12:40;30.80;;;16.30;;
58214;SDS011;44011;52.218;1.480;2022-12-18T14:17:50;34.70;;;17.10;;
58214;SDS011;44011;52.218;1.480;2022-12-18T14:20:16;35.70;;;16.33;;
58214;SDS011;44011;52.218;1.480;2022-12-18T14:22:45;30.77;;;16.60;;
58214;SDS011;44011;52.218;1.480;2022-12-18T14:27:53;35.83;;;17.42;;
58214;SDS011;44011;52.218;1.480;2022-12-18T14:35:30;31.70;;;17.77;;
58214;SDS011;44011;52.218;1.480;2022-12-18T14:43:22;32.65;;;17.45;;
58214;SDS011;44011;52.218;1.480;2022-12-18T14:45:48;29.40;;;16.75;;
58214;SDS011;44011;52.218;1.480;2022-12-18T14:48:21;34.67;;;17.48;;
58214;SDS011;44011;52.218;1.480;2022-12-18T14:51:32;36.33;;;18.52;;
58214;SDS011;44011;52.218;1.480;2022-12-18T14:53:37;32.45;;;17.30;;
58214;SDS011;44011;52.218;1.480;2022-12-18T14:56:11;40.25;;;18.27;;
58214;SDS011;44011;52.218;1.480;2022-12-18T14:58:38;35.08;;;17.52;;
58214;SDS011;44011;52.218;1.480;2022-12-18T15:01:04;34.28;;;16.80;;
58214;SDS011;44011;52.218;1.480;2022-12-18T15:03:29;33.60;;;18.52;;
58214;SDS011;44011;52.218;1.480;2022-12-18T15:05:55;43.38;;;20.80;;
58214;SDS011;44011;52.218;1.480;2022-12-18T15:08:30;36.30;;;20.55;;
58214;SDS011;44011;52.218;1.480;2022-12-18T15:10:59;37.03;;;19.33;;
58214;SDS011;44011;52.218;1.480;2022-12-18T15:13:24;44.47;;;21.75;;
58214;SDS011;44011;52.218;1.480;2022-12-18T15:15:50;42.85;;;21.38;;
58214;SDS011;44011;52.218;1.480;2022-12-18T15:18:16;41.47;;;22.48;;
58214;SDS011;44011;52.218;1.480;2022-12-18T15:20:46;39.22;;;20.50;;
58214;SDS011;44011;52.218;1.480;2022-12-18T15:25:44;37.13;;;18.90;;
58214;SDS011;44011;52.218;1.480;2022-12-18T15:28:21;43.22;;;21.60;;
58214;SDS011;44011;52.218;1.480;2022-12-18T15:30:57;36.05;;;18.90;;
58214;SDS011;44011;52.218;1.480;2022-12-18T15:33:24;36.92;;;18.70;;
58214;SDS011;44011;52.218;1.480;2022-12-18T15:35:59;38.28;;;20.02;;
58214;SDS011;44011;52.218;1.480;2022-12-18T15:38:24;37.40;;;19.63;;
58214;SDS011;44011;52.218;1.480;2022-12-18T15:40:50;40.65;;;18.05;;
58214;SDS011;44011;52.218;1.480;2022-12-18T15:43:21;33.28;;;17.90;;
58214;SDS011;44011;52.218;1.480;2022-12-18T15:46:03;36.80;;;18.13;;
58214;SDS011;44011;52.218;1.480;2022-12-18T15:48:29;35.00;;;18.95;;
58214;SDS011;44011;52.218;1.480;2022-12-18T15:50:55;37.95;;;19.20;;
58214;SDS011;44011;52.218;1.480;2022-12-18T15:53:22;42.83;;;19.98;;
58214;SDS011;44011;52.218;1.480;2022-12-18T15:55:48;39.97;;;19.55;;
58214;SDS011;44011;52.218;1.480;2022-12-18T15:58:32;45.05;;;20.13;;
58214;SDS011;44011;52.218;1.480;2022-12-18T16:00:58;42.50;;;21.23;;
58214;SDS011;44011;52.218;1.480;2022-12-18T16:03:24;47.20;;;22.23;;
58214;SDS011;44011;52.218;1.480;2022-12-18T16:05:49;44.47;;;23.23;;
58214;SDS011;44011;52.218;1.480;2022-12-18T16:08:14;48.42;;;22.80;;
58214;SDS011;44011;52.218;1.480;2022-12-18T16:10:40;95.25;;;36.90;;
58214;SDS011;44011;52.218;1.480;2022-12-18T16:13:06;57.90;;;26.60;;
58214;SDS011;44011;52.218;1.480;2022-12-18T16:15:34;56.00;;;24.15;;
58214;SDS011;44011;52.218;1.480;2022-12-18T16:17:59;52.83;;;26.35;;
58214;SDS011;44011;52.218;1.480;2022-12-18T16:20:24;53.25;;;26.38;;